Megalochari Vii — SY6064 — position and weather

sailwx.info

Track history (hours):
 
Tides and Currents Weather Stations Pressure Air Temp Water Temp Dewpoint Dewpoint Depression Visibility Wind Speed Wind Dir Waves Ship Positions

Megalochari Vii

Last reported at 2015-Jul-01 11:33 UTC. Time now 2015-Jul-01 11:54 UTC.
Position N 37°58' E 023°37'.

Length 27 m; draft 4.8 m.

Type: Tug. MMSI: 240391000.

Date/timePositionNaut miles runAvg speedWind from/ knotsBaromVisibWave heightAir tempDewpointWater temp
2015-Jul-01 11:33N 37°58' E 023°37'1 0.8
2015-Jul-01 10:33N 37°57' E 023°36'0 0.0
2015-Jul-01 09:33N 37°57' E 023°36'1 0.8
2015-Jul-01 08:33N 37°58' E 023°37'0 0.0
2015-Jul-01 07:33N 37°58' E 023°37'0 0.0
2015-Jul-01 06:33N 37°58' E 023°37'0 0.0
2015-Jul-01 05:33N 37°58' E 023°37'1 1.0
2015-Jul-01 04:33N 37°57' E 023°36'1 0.9
2015-Jul-01 03:33N 37°58' E 023°37'0 0.1
2015-Jul-01 02:33N 37°58' E 023°37'0 0.0
2015-Jul-01 01:33N 37°58' E 023°37'0 0.0
2015-Jul-01 00:33N 37°58' E 023°37'0 0.0
2015-Jun-30 23:33N 37°58' E 023°37'0 0.0
2015-Jun-30 22:33N 37°58' E 023°37'0 0.0
2015-Jun-30 21:33N 37°58' E 023°37'0 0.0
2015-Jun-30 20:33N 37°58' E 023°37'0 0.0
2015-Jun-30 19:33N 37°58' E 023°37'0 0.0
2015-Jun-30 18:33N 37°58' E 023°37'0 0.0
2015-Jun-30 17:33N 37°58' E 023°37'0 0.0
2015-Jun-30 16:33N 37°58' E 023°37'0 0.0
2015-Jun-30 15:33N 37°58' E 023°37'0 0.0
2015-Jun-30 14:33N 37°58' E 023°37'0 0.0
2015-Jun-30 13:33N 37°58' E 023°37'1 1.5
2015-Jun-30 12:33N 37°57' E 023°35'5 5.2
2015-Jun-30 11:31N 38°02' E 023°32'0 0.0
2015-Jun-30 10:33N 38°02' E 023°32'0 0.0
2015-Jun-30 09:31N 38°02' E 023°32'0 0.0
2015-Jun-30 08:32N 38°02' E 023°32'0 0.0
2015-Jun-30 07:33N 38°02' E 023°32'0 0.0
2015-Jun-30 06:32N 38°02' E 023°32'2 2.2
2015-Jun-30 05:33N 37°60' E 023°33'4 3.7
2015-Jun-30 04:33N 37°57' E 023°36'1 0.9
2015-Jun-30 03:33N 37°58' E 023°37'2 0.1
2015-Jun-29 11:33N 37°57' E 023°34'0 0.4
2015-Jun-29 10:33N 37°57' E 023°33'0 0.2
2015-Jun-29 09:33N 37°58' E 023°33'0 0.2
2015-Jun-29 08:33N 37°57' E 023°33'0 0.1
2015-Jun-29 07:33N 37°57' E 023°33'3 2.7
2015-Jun-29 06:33N 37°58' E 023°37'0 0.0
2015-Jun-29 05:33N 37°58' E 023°37'1 0.7
2015-Jun-29 04:33N 37°57' E 023°36'1 0.7
2015-Jun-29 03:33N 37°58' E 023°37'0 0.0
2015-Jun-29 02:33N 37°58' E 023°37'0 0.0
2015-Jun-29 01:24N 37°58' E 023°37'0 0.0
2015-Jun-29 00:33N 37°58' E 023°37'0 0.0
2015-Jun-28 23:33N 37°58' E 023°37'0 0.0
2015-Jun-28 22:23N 37°58' E 023°37'0 0.0
2015-Jun-28 21:33N 37°58' E 023°37'0 0.0
2015-Jun-28 20:33N 37°58' E 023°37'0 0.0
2015-Jun-28 19:33N 37°58' E 023°37'0 0.0
2015-Jun-28 18:33N 37°58' E 023°37'0 0.0
2015-Jun-28 17:33N 37°58' E 023°37'0 0.0
2015-Jun-28 16:33N 37°58' E 023°37'0 0.0
2015-Jun-28 15:33N 37°58' E 023°37'2 1.7
2015-Jun-28 14:33N 37°56' E 023°38'1 0.8
2015-Jun-28 13:33N 37°56' E 023°37'2 1.5
2015-Jun-28 12:33N 37°58' E 023°37'3 3.5
2015-Jun-28 11:33N 37°59' E 023°33'3 2.8
2015-Jun-28 10:33N 38°02' E 023°31'5 4.5
2015-Jun-28 09:33N 37°57' E 023°33'3 2.6
2015-Jun-28 08:33N 37°58' E 023°37'0 0.0
2015-Jun-28 07:33N 37°58' E 023°37'0 0.0
2015-Jun-28 06:33N 37°58' E 023°37'2 1.6
2015-Jun-28 05:33N 37°56' E 023°37'1 1.3
2015-Jun-28 04:33N 37°56' E 023°38'0 0.2
2015-Jun-28 03:33N 37°56' E 023°38'1 1.5
2015-Jun-28 02:33N 37°58' E 023°37'0 0.0
2015-Jun-28 01:33N 37°58' E 023°37'0 0.0
2015-Jun-28 00:33N 37°58' E 023°37'0 0.0
2015-Jun-27 23:33N 37°58' E 023°37'0 0.0
2015-Jun-27 22:33N 37°58' E 023°37'0 0.0
2015-Jun-27 21:33N 37°58' E 023°37'0 0.0
2015-Jun-27 20:33N 37°58' E 023°37'0 0.0
2015-Jun-27 19:33N 37°58' E 023°37'0 0.0
2015-Jun-27 18:33N 37°58' E 023°37'0 0.0
2015-Jun-27 17:33N 37°58' E 023°37'0 0.0
2015-Jun-27 16:33N 37°58' E 023°37'0 0.0
2015-Jun-27 15:33N 37°58' E 023°37'0 0.0
2015-Jun-27 14:33N 37°58' E 023°37'0 0.0
2015-Jun-27 13:33N 37°58' E 023°37'0 0.0
2015-Jun-27 12:33N 37°58' E 023°37'0 0.0
2015-Jun-27 11:33N 37°58' E 023°37'0 0.0
2015-Jun-27 10:33N 37°58' E 023°37'0 0.0
2015-Jun-27 09:33N 37°58' E 023°37'0 0.0
2015-Jun-27 08:33N 37°58' E 023°37'0 0.0
2015-Jun-27 07:33N 37°58' E 023°37'0 0.0
2015-Jun-27 06:33N 37°58' E 023°37'0 0.0
2015-Jun-27 05:33N 37°58' E 023°37'0 0.0
2015-Jun-27 04:33N 37°58' E 023°37'0 0.0
2015-Jun-27 03:33N 37°58' E 023°37'0 0.0
2015-Jun-27 02:33N 37°58' E 023°37'0 0.0
2015-Jun-27 01:33N 37°58' E 023°37'0 0.0
2015-Jun-27 00:33N 37°58' E 023°37'0 0.0
2015-Jun-26 23:33N 37°58' E 023°37'0 0.0
2015-Jun-26 22:33N 37°58' E 023°37'0 0.0
2015-Jun-26 21:33N 37°58' E 023°37'0 0.0
2015-Jun-26 20:33N 37°58' E 023°37'1 1.3
2015-Jun-26 19:33N 37°57' E 023°35'0 0.4
2015-Jun-26 18:33N 37°57' E 023°35'1 1.2
2015-Jun-26 17:33N 37°58' E 023°37'1 0.9
2015-Jun-26 16:33N 37°57' E 023°36'0 0.3
2015-Jun-26 15:33N 37°57' E 023°36'0 0.0
2015-Jun-26 14:33N 37°57' E 023°36'0 0.0
2015-Jun-26 13:33N 37°57' E 023°36'0 0.0
2015-Jun-26 12:33N 37°57' E 023°36'0 0.3
2015-Jun-26 11:33N 37°57' E 023°36'1 0.6
2015-Jun-26 10:33N 37°58' E 023°37'2 2.3
2015-Jun-26 09:33N 37°57' E 023°34'0 0.5
2015-Jun-26 08:33N 37°58' E 023°33'3 2.7
2015-Jun-26 07:33N 37°58' E 023°37'0 0.0
2015-Jun-26 06:33N 37°58' E 023°37'0 0.3
2015-Jun-26 05:29N 37°57' E 023°36'1 1.0
2015-Jun-26 04:31N 37°57' E 023°35'1 1.3
2015-Jun-26 03:30N 37°58' E 023°37'0 0.0
2015-Jun-26 02:18N 37°58' E 023°37'0 0.0
2015-Jun-26 01:30N 37°58' E 023°37'0 0.0
2015-Jun-26 00:29N 37°58' E 023°37'1 1.5
2015-Jun-25 23:32N 37°57' E 023°35'1 0.6
2015-Jun-25 22:33N 37°57' E 023°36'1 0.6
2015-Jun-25 21:33N 37°57' E 023°35'1 1.2
2015-Jun-25 20:24N 37°58' E 023°37'1 1.3
2015-Jun-25 19:31N 37°57' E 023°35'1 1.1
2015-Jun-25 18:23N 37°58' E 023°37'1 0.6
2015-Jun-25 17:31N 37°57' E 023°36'1 0.6
2015-Jun-25 16:33N 37°58' E 023°37'1 1.0
2015-Jun-25 15:33N 37°57' E 023°36'2 2.0
2015-Jun-25 14:33N 37°58' E 023°34'0 0.2
2015-Jun-25 13:33N 37°57' E 023°34'0 0.2
2015-Jun-25 12:33N 37°58' E 023°34'2 2.4
2015-Jun-25 11:33N 37°58' E 023°37'0 0.0
2015-Jun-25 10:33N 37°58' E 023°37'0 0.0
2015-Jun-25 09:33N 37°58' E 023°37'0 0.0
2015-Jun-25 08:33N 37°58' E 023°37'0 0.0
2015-Jun-25 07:33N 37°58' E 023°37'0 0.0
2015-Jun-25 06:33N 37°58' E 023°37'0 0.0
2015-Jun-25 05:33N 37°58' E 023°37'0 0.0
2015-Jun-25 04:33N 37°58' E 023°37'0 0.0
2015-Jun-25 03:33N 37°58' E 023°37'0 0.0
2015-Jun-25 02:33N 37°58' E 023°37'0 0.0
2015-Jun-25 01:33N 37°58' E 023°37'0 0.0
2015-Jun-25 00:33N 37°58' E 023°37'0 0.0
2015-Jun-24 23:33N 37°58' E 023°37'0 0.0
2015-Jun-24 22:28N 37°58' E 023°37'0 0.0
2015-Jun-24 21:33N 37°58' E 023°37'0 0.0
2015-Jun-24 20:33N 37°58' E 023°37'7 6.6
2015-Jun-24 19:33N 38°02' E 023°30'0 0.2
2015-Jun-24 18:33N 38°02' E 023°31'1 0.7
2015-Jun-24 17:33N 38°01' E 023°31'1 0.9
2015-Jun-24 16:33N 38°02' E 023°31'1 0.7
2015-Jun-24 15:33N 38°01' E 023°31'8 7.5
2015-Jun-24 14:33N 37°56' E 023°38'0 0.3
2015-Jun-24 13:33N 37°57' E 023°38'2 2.1
2015-Jun-24 12:33N 37°57' E 023°36'1 1.0
2015-Jun-24 11:33N 37°58' E 023°37'0 0.0
2015-Jun-24 10:33N 37°58' E 023°37'0 0.0
2015-Jun-24 09:33N 37°58' E 023°37'0 0.0
2015-Jun-24 08:33N 37°58' E 023°37'0 0.0
2015-Jun-24 07:33N 37°58' E 023°37'0 0.0
2015-Jun-24 06:33N 37°58' E 023°37'0 0.0
2015-Jun-24 05:33N 37°58' E 023°37'0 0.0
2015-Jun-24 04:33N 37°58' E 023°37'0 0.0
2015-Jun-24 03:33N 37°58' E 023°37'0 0.0
2015-Jun-24 02:33N 37°58' E 023°37'0 0.0
2015-Jun-24 01:33N 37°58' E 023°37'0 0.0
2015-Jun-24 00:33N 37°58' E 023°37'0 0.0
2015-Jun-23 23:33N 37°58' E 023°37'0 0.0
2015-Jun-23 22:33N 37°58' E 023°37'0 0.0
2015-Jun-23 21:33N 37°58' E 023°37'3 3.0
2015-Jun-23 20:33N 37°58' E 023°33'4 4.4
2015-Jun-23 19:33N 38°02' E 023°36'0 0.3
2015-Jun-23 19:06N 38°01' E 023°35'4 0.2
2015-Jun-22 19:33N 37°57' E 023°35'1 0.6
2015-Jun-22 18:33N 37°57' E 023°36'1 0.7
2015-Jun-22 17:33N 37°58' E 023°37'0 0.1
2015-Jun-22 16:33N 37°58' E 023°37'0 0.1
2015-Jun-22 15:33N 37°58' E 023°37'0 0.0
2015-Jun-22 14:33N 37°58' E 023°37'0 0.0
2015-Jun-22 13:33N 37°58' E 023°37'1 1.0
2015-Jun-22 12:33N 37°57' E 023°36'1 1.0
2015-Jun-22 11:33N 37°58' E 023°37'0 0.0
2015-Jun-22 10:33N 37°58' E 023°37'0 0.0
2015-Jun-22 09:33N 37°58' E 023°37'0 0.0
2015-Jun-22 08:33N 37°58' E 023°37'0 0.0
2015-Jun-22 07:33N 37°58' E 023°37'0 0.0
2015-Jun-22 06:33N 37°58' E 023°37'0 0.0
2015-Jun-22 05:29N 37°58' E 023°37'0 0.0
2015-Jun-22 04:33N 37°58' E 023°37'0 0.0
2015-Jun-22 03:33N 37°58' E 023°37'0 0.0
2015-Jun-22 02:33N 37°58' E 023°37'0 0.0
2015-Jun-22 01:33N 37°58' E 023°37'0 0.0
2015-Jun-22 00:33N 37°58' E 023°37'0 0.0
2015-Jun-21 23:33N 37°58' E 023°37'0 0.0
2015-Jun-21 22:33N 37°58' E 023°37'1 0.9
2015-Jun-21 21:33N 37°57' E 023°36'7 6.5
2015-Jun-21 20:33N 38°02' E 023°31'1 1.0
2015-Jun-21 19:33N 38°01' E 023°31'6 5.7
2015-Jun-21 18:33N 37°58' E 023°37'0 0.0
2015-Jun-21 17:33N 37°58' E 023°37'1 1.2
2015-Jun-21 16:33N 37°57' E 023°35'1 1.2
2015-Jun-21 15:33N 37°58' E 023°37'0 0.0
2015-Jun-21 14:33N 37°58' E 023°37'0 0.0
2015-Jun-21 13:33N 37°58' E 023°37'0 0.0
2015-Jun-21 12:33N 37°58' E 023°37'1 1.2
2015-Jun-21 11:33N 37°57' E 023°35'  
Track history (hours):
 
Tides and Currents Weather Stations Pressure Air Temp Water Temp Dewpoint Dewpoint Depression Visibility Wind Speed Wind Dir Waves Ship Positions

Megalochari Vii

Last reported at 2015-Jul-01 11:33 UTC. Time now 2015-Jul-01 11:54 UTC.
Position N 37°58' E 023°37'.

Length 27 m; draft 4.8 m.

Type: Tug. MMSI: 240391000.

Date/timePositionNaut miles runAvg speedWind from/ knotsBaromVisibWave heightAir tempDewpointWater temp
2015-Jul-01 11:33N 37°58' E 023°37'1 0.8
2015-Jul-01 10:33N 37°57' E 023°36'0 0.0
2015-Jul-01 09:33N 37°57' E 023°36'1 0.8
2015-Jul-01 08:33N 37°58' E 023°37'0 0.0
2015-Jul-01 07:33N 37°58' E 023°37'0 0.0
2015-Jul-01 06:33N 37°58' E 023°37'0 0.0
2015-Jul-01 05:33N 37°58' E 023°37'1 1.0
2015-Jul-01 04:33N 37°57' E 023°36'1 0.9
2015-Jul-01 03:33N 37°58' E 023°37'0 0.1
2015-Jul-01 02:33N 37°58' E 023°37'0 0.0
2015-Jul-01 01:33N 37°58' E 023°37'0 0.0
2015-Jul-01 00:33N 37°58' E 023°37'0 0.0
2015-Jun-30 23:33N 37°58' E 023°37'0 0.0
2015-Jun-30 22:33N 37°58' E 023°37'0 0.0
2015-Jun-30 21:33N 37°58' E 023°37'0 0.0
2015-Jun-30 20:33N 37°58' E 023°37'0 0.0
2015-Jun-30 19:33N 37°58' E 023°37'0 0.0
2015-Jun-30 18:33N 37°58' E 023°37'0 0.0
2015-Jun-30 17:33N 37°58' E 023°37'0 0.0
2015-Jun-30 16:33N 37°58' E 023°37'0 0.0
2015-Jun-30 15:33N 37°58' E 023°37'0 0.0
2015-Jun-30 14:33N 37°58' E 023°37'0 0.0
2015-Jun-30 13:33N 37°58' E 023°37'1 1.5
2015-Jun-30 12:33N 37°57' E 023°35'5 5.2
2015-Jun-30 11:31N 38°02' E 023°32'0 0.0
2015-Jun-30 10:33N 38°02' E 023°32'0 0.0
2015-Jun-30 09:31N 38°02' E 023°32'0 0.0
2015-Jun-30 08:32N 38°02' E 023°32'0 0.0
2015-Jun-30 07:33N 38°02' E 023°32'0 0.0
2015-Jun-30 06:32N 38°02' E 023°32'2 2.2
2015-Jun-30 05:33N 37°60' E 023°33'4 3.7
2015-Jun-30 04:33N 37°57' E 023°36'1 0.9
2015-Jun-30 03:33N 37°58' E 023°37'2 0.1
2015-Jun-29 11:33N 37°57' E 023°34'0 0.4
2015-Jun-29 10:33N 37°57' E 023°33'0 0.2
2015-Jun-29 09:33N 37°58' E 023°33'0 0.2
2015-Jun-29 08:33N 37°57' E 023°33'0 0.1
2015-Jun-29 07:33N 37°57' E 023°33'3 2.7
2015-Jun-29 06:33N 37°58' E 023°37'0 0.0
2015-Jun-29 05:33N 37°58' E 023°37'1 0.7
2015-Jun-29 04:33N 37°57' E 023°36'1 0.7
2015-Jun-29 03:33N 37°58' E 023°37'0 0.0
2015-Jun-29 02:33N 37°58' E 023°37'0 0.0
2015-Jun-29 01:24N 37°58' E 023°37'0 0.0
2015-Jun-29 00:33N 37°58' E 023°37'0 0.0
2015-Jun-28 23:33N 37°58' E 023°37'0 0.0
2015-Jun-28 22:23N 37°58' E 023°37'0 0.0
2015-Jun-28 21:33N 37°58' E 023°37'0 0.0
2015-Jun-28 20:33N 37°58' E 023°37'0 0.0
2015-Jun-28 19:33N 37°58' E 023°37'0 0.0
2015-Jun-28 18:33N 37°58' E 023°37'0 0.0
2015-Jun-28 17:33N 37°58' E 023°37'0 0.0
2015-Jun-28 16:33N 37°58' E 023°37'0 0.0
2015-Jun-28 15:33N 37°58' E 023°37'2 1.7
2015-Jun-28 14:33N 37°56' E 023°38'1 0.8
2015-Jun-28 13:33N 37°56' E 023°37'2 1.5
2015-Jun-28 12:33N 37°58' E 023°37'3 3.5
2015-Jun-28 11:33N 37°59' E 023°33'3 2.8
2015-Jun-28 10:33N 38°02' E 023°31'5 4.5
2015-Jun-28 09:33N 37°57' E 023°33'3 2.6
2015-Jun-28 08:33N 37°58' E 023°37'0 0.0
2015-Jun-28 07:33N 37°58' E 023°37'0 0.0
2015-Jun-28 06:33N 37°58' E 023°37'2 1.6
2015-Jun-28 05:33N 37°56' E 023°37'1 1.3
2015-Jun-28 04:33N 37°56' E 023°38'0 0.2
2015-Jun-28 03:33N 37°56' E 023°38'1 1.5
2015-Jun-28 02:33N 37°58' E 023°37'0 0.0
2015-Jun-28 01:33N 37°58' E 023°37'0 0.0
2015-Jun-28 00:33N 37°58' E 023°37'0 0.0
2015-Jun-27 23:33N 37°58' E 023°37'0 0.0
2015-Jun-27 22:33N 37°58' E 023°37'0 0.0
2015-Jun-27 21:33N 37°58' E 023°37'0 0.0
2015-Jun-27 20:33N 37°58' E 023°37'0 0.0
2015-Jun-27 19:33N 37°58' E 023°37'0 0.0
2015-Jun-27 18:33N 37°58' E 023°37'0 0.0
2015-Jun-27 17:33N 37°58' E 023°37'0 0.0
2015-Jun-27 16:33N 37°58' E 023°37'0 0.0
2015-Jun-27 15:33N 37°58' E 023°37'0 0.0
2015-Jun-27 14:33N 37°58' E 023°37'0 0.0
2015-Jun-27 13:33N 37°58' E 023°37'0 0.0
2015-Jun-27 12:33N 37°58' E 023°37'0 0.0
2015-Jun-27 11:33N 37°58' E 023°37'0 0.0
2015-Jun-27 10:33N 37°58' E 023°37'0 0.0
2015-Jun-27 09:33N 37°58' E 023°37'0 0.0
2015-Jun-27 08:33N 37°58' E 023°37'0 0.0
2015-Jun-27 07:33N 37°58' E 023°37'0 0.0
2015-Jun-27 06:33N 37°58' E 023°37'0 0.0
2015-Jun-27 05:33N 37°58' E 023°37'0 0.0
2015-Jun-27 04:33N 37°58' E 023°37'0 0.0
2015-Jun-27 03:33N 37°58' E 023°37'0 0.0
2015-Jun-27 02:33N 37°58' E 023°37'0 0.0
2015-Jun-27 01:33N 37°58' E 023°37'0 0.0
2015-Jun-27 00:33N 37°58' E 023°37'0 0.0
2015-Jun-26 23:33N 37°58' E 023°37'0 0.0
2015-Jun-26 22:33N 37°58' E 023°37'0 0.0
2015-Jun-26 21:33N 37°58' E 023°37'0 0.0
2015-Jun-26 20:33N 37°58' E 023°37'1 1.3
2015-Jun-26 19:33N 37°57' E 023°35'0 0.4
2015-Jun-26 18:33N 37°57' E 023°35'1 1.2
2015-Jun-26 17:33N 37°58' E 023°37'1 0.9
2015-Jun-26 16:33N 37°57' E 023°36'0 0.3
2015-Jun-26 15:33N 37°57' E 023°36'0 0.0
2015-Jun-26 14:33N 37°57' E 023°36'0 0.0
2015-Jun-26 13:33N 37°57' E 023°36'0 0.0
2015-Jun-26 12:33N 37°57' E 023°36'0 0.3
2015-Jun-26 11:33N 37°57' E 023°36'1 0.6
2015-Jun-26 10:33N 37°58' E 023°37'2 2.3
2015-Jun-26 09:33N 37°57' E 023°34'0 0.5
2015-Jun-26 08:33N 37°58' E 023°33'3 2.7
2015-Jun-26 07:33N 37°58' E 023°37'0 0.0
2015-Jun-26 06:33N 37°58' E 023°37'0 0.3
2015-Jun-26 05:29N 37°57' E 023°36'1 1.0
2015-Jun-26 04:31N 37°57' E 023°35'1 1.3
2015-Jun-26 03:30N 37°58' E 023°37'0 0.0
2015-Jun-26 02:18N 37°58' E 023°37'0 0.0
2015-Jun-26 01:30N 37°58' E 023°37'0 0.0
2015-Jun-26 00:29N 37°58' E 023°37'1 1.5
2015-Jun-25 23:32N 37°57' E 023°35'1 0.6
2015-Jun-25 22:33N 37°57' E 023°36'1 0.6
2015-Jun-25 21:33N 37°57' E 023°35'1 1.2
2015-Jun-25 20:24N 37°58' E 023°37'1 1.3
2015-Jun-25 19:31N 37°57' E 023°35'1 1.1
2015-Jun-25 18:23N 37°58' E 023°37'1 0.6
2015-Jun-25 17:31N 37°57' E 023°36'1 0.6
2015-Jun-25 16:33N 37°58' E 023°37'1 1.0
2015-Jun-25 15:33N 37°57' E 023°36'2 2.0
2015-Jun-25 14:33N 37°58' E 023°34'0 0.2
2015-Jun-25 13:33N 37°57' E 023°34'0 0.2
2015-Jun-25 12:33N 37°58' E 023°34'2 2.4
2015-Jun-25 11:33N 37°58' E 023°37'0 0.0
2015-Jun-25 10:33N 37°58' E 023°37'0 0.0
2015-Jun-25 09:33N 37°58' E 023°37'0 0.0
2015-Jun-25 08:33N 37°58' E 023°37'0 0.0
2015-Jun-25 07:33N 37°58' E 023°37'0 0.0
2015-Jun-25 06:33N 37°58' E 023°37'0 0.0
2015-Jun-25 05:33N 37°58' E 023°37'0 0.0
2015-Jun-25 04:33N 37°58' E 023°37'0 0.0
2015-Jun-25 03:33N 37°58' E 023°37'0 0.0
2015-Jun-25 02:33N 37°58' E 023°37'0 0.0
2015-Jun-25 01:33N 37°58' E 023°37'0 0.0
2015-Jun-25 00:33N 37°58' E 023°37'0 0.0
2015-Jun-24 23:33N 37°58' E 023°37'0 0.0
2015-Jun-24 22:28N 37°58' E 023°37'0 0.0
2015-Jun-24 21:33N 37°58' E 023°37'0 0.0
2015-Jun-24 20:33N 37°58' E 023°37'7 6.6
2015-Jun-24 19:33N 38°02' E 023°30'0 0.2
2015-Jun-24 18:33N 38°02' E 023°31'1 0.7
2015-Jun-24 17:33N 38°01' E 023°31'1 0.9
2015-Jun-24 16:33N 38°02' E 023°31'1 0.7
2015-Jun-24 15:33N 38°01' E 023°31'8 7.5
2015-Jun-24 14:33N 37°56' E 023°38'0 0.3
2015-Jun-24 13:33N 37°57' E 023°38'2 2.1
2015-Jun-24 12:33N 37°57' E 023°36'1 1.0
2015-Jun-24 11:33N 37°58' E 023°37'0 0.0
2015-Jun-24 10:33N 37°58' E 023°37'0 0.0
2015-Jun-24 09:33N 37°58' E 023°37'0 0.0
2015-Jun-24 08:33N 37°58' E 023°37'0 0.0
2015-Jun-24 07:33N 37°58' E 023°37'0 0.0
2015-Jun-24 06:33N 37°58' E 023°37'0 0.0
2015-Jun-24 05:33N 37°58' E 023°37'0 0.0
2015-Jun-24 04:33N 37°58' E 023°37'0 0.0
2015-Jun-24 03:33N 37°58' E 023°37'0 0.0
2015-Jun-24 02:33N 37°58' E 023°37'0 0.0
2015-Jun-24 01:33N 37°58' E 023°37'0 0.0
2015-Jun-24 00:33N 37°58' E 023°37'0 0.0
2015-Jun-23 23:33N 37°58' E 023°37'0 0.0
2015-Jun-23 22:33N 37°58' E 023°37'0 0.0
2015-Jun-23 21:33N 37°58' E 023°37'3 3.0
2015-Jun-23 20:33N 37°58' E 023°33'4 4.4
2015-Jun-23 19:33N 38°02' E 023°36'0 0.3
2015-Jun-23 19:06N 38°01' E 023°35'4 0.2
2015-Jun-22 19:33N 37°57' E 023°35'1 0.6
2015-Jun-22 18:33N 37°57' E 023°36'1 0.7
2015-Jun-22 17:33N 37°58' E 023°37'0 0.1
2015-Jun-22 16:33N 37°58' E 023°37'0 0.1
2015-Jun-22 15:33N 37°58' E 023°37'0 0.0
2015-Jun-22 14:33N 37°58' E 023°37'0 0.0
2015-Jun-22 13:33N 37°58' E 023°37'1 1.0
2015-Jun-22 12:33N 37°57' E 023°36'1 1.0
2015-Jun-22 11:33N 37°58' E 023°37'0 0.0
2015-Jun-22 10:33N 37°58' E 023°37'0 0.0
2015-Jun-22 09:33N 37°58' E 023°37'0 0.0
2015-Jun-22 08:33N 37°58' E 023°37'0 0.0
2015-Jun-22 07:33N 37°58' E 023°37'0 0.0
2015-Jun-22 06:33N 37°58' E 023°37'0 0.0
2015-Jun-22 05:29N 37°58' E 023°37'0 0.0
2015-Jun-22 04:33N 37°58' E 023°37'0 0.0
2015-Jun-22 03:33N 37°58' E 023°37'0 0.0
2015-Jun-22 02:33N 37°58' E 023°37'0 0.0
2015-Jun-22 01:33N 37°58' E 023°37'0 0.0
2015-Jun-22 00:33N 37°58' E 023°37'0 0.0
2015-Jun-21 23:33N 37°58' E 023°37'0 0.0
2015-Jun-21 22:33N 37°58' E 023°37'1 0.9
2015-Jun-21 21:33N 37°57' E 023°36'7 6.5
2015-Jun-21 20:33N 38°02' E 023°31'1 1.0
2015-Jun-21 19:33N 38°01' E 023°31'6 5.7
2015-Jun-21 18:33N 37°58' E 023°37'0 0.0
2015-Jun-21 17:33N 37°58' E 023°37'1 1.2
2015-Jun-21 16:33N 37°57' E 023°35'1 1.2
2015-Jun-21 15:33N 37°58' E 023°37'0 0.0
2015-Jun-21 14:33N 37°58' E 023°37'0 0.0
2015-Jun-21 13:33N 37°58' E 023°37'0 0.0
2015-Jun-21 12:33N 37°58' E 023°37'1 1.2
2015-Jun-21 11:33N 37°57' E 023°35'  

Dump ship's entire track history